KAAO

Details ICAO KAAO
Name Colonel James Jabara
Region United States
Timezone America/Chicago (UTC-6.0)
Plans Departing 21
Arriving 19
Stats Elevation 1,421 ft / 433 m (AMSL)
Location 37.747575° -97.221116°
Runways 1
Magnetic Variation 3.521° E
Sunrise 2017-12-18 13:40:25 UTC / 2017-12-18 07:40:25 Local
Sunset 2017-12-18 23:13:32 UTC / 2017-12-18 17:13:32 Local
Advertisement - Login to hide

Runways

ID Width Length Bearing (true) Bearing (mag) Surface Threshold Offset Overrun Length
18 98 ft / 30 m 6,112 ft / 1,863 m 186.81° 183.29° Concrete 0 ft / 0 m 0 ft / 0 m
36 98 ft / 30 m 6,112 ft / 1,863 m 6.81° 3.29° Concrete 0 ft / 0 m 0 ft / 0 m

Map

Weather


0- 5 10 15 20 25 30 35+ Temperature / ° C

Clouds and Precipitation
Forecast for 2017-12-18 12:00 UTC. Updated an hour ago

Ground ~20,000 ft ~40,000 ft Winds

METAR

KAAO 180954Z AUTO 00000KT 6SM BR CLR M01/M01 A3006 RMK AO2 SLP190 T10111011

TAF

Not found

Frequencies

Recorded 123.88 MHz AWOS
Clearance 125.00 MHz Clearance Delivery
Departure 134.80 MHz Wichita Departure
Unicom 122.70 MHz CTAF
Approach 134.80 MHz Wichita Approach
Warning: Do not use this data for real-world aviation or navigation. No guarantee of current accuracy is given.